sensor_id;sensor_type;location;lat;lon;timestamp;P1;durP1;ratioP1;P2;durP2;ratioP2
22711;SDS011;11523;50.390;8.072;2023-08-30T00:00:42;11.98;;;3.40;;
22711;SDS011;11523;50.390;8.072;2023-08-30T00:03:10;3.47;;;3.17;;
22711;SDS011;11523;50.390;8.072;2023-08-30T00:05:38;10.55;;;3.30;;
22711;SDS011;11523;50.390;8.072;2023-08-30T00:08:05;4.63;;;2.97;;
22711;SDS011;11523;50.390;8.072;2023-08-30T00:10:31;3.60;;;3.00;;
22711;SDS011;11523;50.390;8.072;2023-08-30T00:12:57;5.20;;;2.97;;
22711;SDS011;11523;50.390;8.072;2023-08-30T00:15:22;4.22;;;3.30;;
22711;SDS011;11523;50.390;8.072;2023-08-30T00:17:49;4.05;;;3.05;;
22711;SDS011;11523;50.390;8.072;2023-08-30T00:20:17;6.60;;;3.28;;
22711;SDS011;11523;50.390;8.072;2023-08-30T00:22:42;10.70;;;4.10;;
22711;SDS011;11523;50.390;8.072;2023-08-30T00:25:08;4.65;;;3.08;;
22711;SDS011;11523;50.390;8.072;2023-08-30T00:27:34;9.38;;;3.53;;
22711;SDS011;11523;50.390;8.072;2023-08-30T00:30:00;6.72;;;3.72;;
22711;SDS011;11523;50.390;8.072;2023-08-30T00:32:26;4.85;;;3.20;;
22711;SDS011;11523;50.390;8.072;2023-08-30T00:34:52;5.13;;;3.28;;
22711;SDS011;11523;50.390;8.072;2023-08-30T00:37:18;7.35;;;3.10;;
22711;SDS011;11523;50.390;8.072;2023-08-30T00:39:44;6.32;;;3.20;;
22711;SDS011;11523;50.390;8.072;2023-08-30T00:42:10;4.68;;;3.70;;
22711;SDS011;11523;50.390;8.072;2023-08-30T00:44:36;5.20;;;3.08;;
22711;SDS011;11523;50.390;8.072;2023-08-30T00:47:02;8.88;;;3.20;;
22711;SDS011;11523;50.390;8.072;2023-08-30T00:49:29;8.70;;;4.45;;
22711;SDS011;11523;50.390;8.072;2023-08-30T00:51:56;6.68;;;3.72;;
22711;SDS011;11523;50.390;8.072;2023-08-30T00:54:22;5.72;;;3.17;;
22711;SDS011;11523;50.390;8.072;2023-08-30T00:56:48;9.63;;;4.20;;
22711;SDS011;11523;50.390;8.072;2023-08-30T00:59:15;7.38;;;3.30;;
22711;SDS011;11523;50.390;8.072;2023-08-30T01:01:41;6.40;;;2.95;;
22711;SDS011;11523;50.390;8.072;2023-08-30T01:04:07;3.88;;;3.15;;
22711;SDS011;11523;50.390;8.072;2023-08-30T01:06:33;3.42;;;3.13;;
22711;SDS011;11523;50.390;8.072;2023-08-30T01:09:00;4.57;;;3.50;;
22711;SDS011;11523;50.390;8.072;2023-08-30T01:14:20;6.50;;;3.70;;
22711;SDS011;11523;50.390;8.072;2023-08-30T01:16:47;5.40;;;3.47;;
22711;SDS011;11523;50.390;8.072;2023-08-30T01:24:26;3.88;;;3.50;;
22711;SDS011;11523;50.390;8.072;2023-08-30T01:27:10;6.53;;;3.30;;
22711;SDS011;11523;50.390;8.072;2023-08-30T01:29:37;3.95;;;3.15;;
22711;SDS011;11523;50.390;8.072;2023-08-30T01:32:09;4.43;;;3.15;;
22711;SDS011;11523;50.390;8.072;2023-08-30T01:34:36;6.45;;;3.70;;
22711;SDS011;11523;50.390;8.072;2023-08-30T01:37:03;4.20;;;3.50;;
22711;SDS011;11523;50.390;8.072;2023-08-30T01:39:30;4.88;;;3.50;;
22711;SDS011;11523;50.390;8.072;2023-08-30T01:42:03;6.63;;;3.55;;
22711;SDS011;11523;50.390;8.072;2023-08-30T01:44:30;4.78;;;3.67;;
22711;SDS011;11523;50.390;8.072;2023-08-30T01:46:56;4.85;;;3.65;;
22711;SDS011;11523;50.390;8.072;2023-08-30T01:49:23;4.20;;;3.55;;
22711;SDS011;11523;50.390;8.072;2023-08-30T01:51:49;5.57;;;3.67;;
22711;SDS011;11523;50.390;8.072;2023-08-30T01:54:17;5.95;;;3.78;;
22711;SDS011;11523;50.390;8.072;2023-08-30T01:56:43;5.32;;;4.18;;
22711;SDS011;11523;50.390;8.072;2023-08-30T01:59:09;5.10;;;3.42;;
22711;SDS011;11523;50.390;8.072;2023-08-30T02:01:35;6.82;;;3.60;;
22711;SDS011;11523;50.390;8.072;2023-08-30T02:04:01;5.47;;;3.45;;
22711;SDS011;11523;50.390;8.072;2023-08-30T02:06:30;5.28;;;3.75;;
22711;SDS011;11523;50.390;8.072;2023-08-30T02:09:02;7.07;;;3.60;;
22711;SDS011;11523;50.390;8.072;2023-08-30T02:11:30;4.72;;;3.40;;
22711;SDS011;11523;50.390;8.072;2023-08-30T02:13:58;7.13;;;3.80;;
22711;SDS011;11523;50.390;8.072;2023-08-30T02:16:25;5.03;;;3.35;;
22711;SDS011;11523;50.390;8.072;2023-08-30T02:18:51;5.50;;;3.47;;
22711;SDS011;11523;50.390;8.072;2023-08-30T02:21:18;5.85;;;3.28;;
22711;SDS011;11523;50.390;8.072;2023-08-30T02:23:48;4.63;;;3.60;;
22711;SDS011;11523;50.390;8.072;2023-08-30T02:26:14;5.25;;;3.40;;
22711;SDS011;11523;50.390;8.072;2023-08-30T02:28:40;7.35;;;3.50;;
22711;SDS011;11523;50.390;8.072;2023-08-30T02:31:06;4.57;;;3.40;;
22711;SDS011;11523;50.390;8.072;2023-08-30T02:33:32;4.95;;;3.67;;
22711;SDS011;11523;50.390;8.072;2023-08-30T02:35:58;3.90;;;3.40;;
22711;SDS011;11523;50.390;8.072;2023-08-30T02:38:24;4.55;;;3.53;;
22711;SDS011;11523;50.390;8.072;2023-08-30T02:40:50;11.70;;;3.80;;
22711;SDS011;11523;50.390;8.072;2023-08-30T02:43:16;6.18;;;3.05;;
22711;SDS011;11523;50.390;8.072;2023-08-30T02:45:42;5.18;;;3.13;;
22711;SDS011;11523;50.390;8.072;2023-08-30T02:48:08;4.50;;;3.78;;
22711;SDS011;11523;50.390;8.072;2023-08-30T02:50:34;4.30;;;3.22;;
22711;SDS011;11523;50.390;8.072;2023-08-30T02:53:00;3.30;;;3.00;;
22711;SDS011;11523;50.390;8.072;2023-08-30T02:55:26;4.97;;;3.22;;
22711;SDS011;11523;50.390;8.072;2023-08-30T02:57:52;7.70;;;3.55;;
22711;SDS011;11523;50.390;8.072;2023-08-30T03:00:18;6.80;;;3.15;;
22711;SDS011;11523;50.390;8.072;2023-08-30T03:02:44;5.45;;;3.20;;
22711;SDS011;11523;50.390;8.072;2023-08-30T03:05:10;9.05;;;4.07;;
22711;SDS011;11523;50.390;8.072;2023-08-30T03:07:37;5.30;;;3.63;;
22711;SDS011;11523;50.390;8.072;2023-08-30T03:10:03;4.90;;;3.17;;
22711;SDS011;11523;50.390;8.072;2023-08-30T03:12:29;6.25;;;3.22;;
22711;SDS011;11523;50.390;8.072;2023-08-30T03:14:55;5.93;;;3.40;;
22711;SDS011;11523;50.390;8.072;2023-08-30T03:17:21;4.18;;;3.40;;
22711;SDS011;11523;50.390;8.072;2023-08-30T03:19:47;10.18;;;3.30;;
22711;SDS011;11523;50.390;8.072;2023-08-30T03:22:13;4.78;;;3.00;;
22711;SDS011;11523;50.390;8.072;2023-08-30T03:24:39;4.55;;;3.28;;
22711;SDS011;11523;50.390;8.072;2023-08-30T03:27:05;6.97;;;3.20;;
22711;SDS011;11523;50.390;8.072;2023-08-30T03:29:30;4.50;;;3.55;;
22711;SDS011;11523;50.390;8.072;2023-08-30T03:31:56;5.35;;;3.38;;
22711;SDS011;11523;50.390;8.072;2023-08-30T03:34:22;4.45;;;3.10;;
22711;SDS011;11523;50.390;8.072;2023-08-30T03:36:48;3.58;;;3.13;;
22711;SDS011;11523;50.390;8.072;2023-08-30T03:39:19;3.35;;;3.05;;
22711;SDS011;11523;50.390;8.072;2023-08-30T03:41:45;6.70;;;3.20;;
22711;SDS011;11523;50.390;8.072;2023-08-30T03:44:10;4.35;;;3.40;;
22711;SDS011;11523;50.390;8.072;2023-08-30T03:46:36;4.65;;;3.30;;
22711;SDS011;11523;50.390;8.072;2023-08-30T03:49:03;4.82;;;3.05;;
22711;SDS011;11523;50.390;8.072;2023-08-30T03:51:29;4.70;;;3.17;;
22711;SDS011;11523;50.390;8.072;2023-08-30T03:53:57;6.63;;;3.00;;
22711;SDS011;11523;50.390;8.072;2023-08-30T03:56:23;4.75;;;3.30;;
22711;SDS011;11523;50.390;8.072;2023-08-30T03:58:49;4.07;;;2.67;;
22711;SDS011;11523;50.390;8.072;2023-08-30T04:01:15;5.57;;;3.00;;
22711;SDS011;11523;50.390;8.072;2023-08-30T04:03:41;9.75;;;3.15;;
22711;SDS011;11523;50.390;8.072;2023-08-30T04:06:07;4.30;;;3.25;;
22711;SDS011;11523;50.390;8.072;2023-08-30T04:08:39;4.63;;;2.88;;
22711;SDS011;11523;50.390;8.072;2023-08-30T04:11:05;8.32;;;2.75;;
22711;SDS011;11523;50.390;8.072;2023-08-30T04:13:31;6.10;;;3.00;;
22711;SDS011;11523;50.390;8.072;2023-08-30T04:15:57;5.50;;;3.05;;
22711;SDS011;11523;50.390;8.072;2023-08-30T04:18:24;6.85;;;2.90;;
22711;SDS011;11523;50.390;8.072;2023-08-30T04:20:50;4.32;;;3.13;;
22711;SDS011;11523;50.390;8.072;2023-08-30T04:23:16;5.45;;;2.83;;
22711;SDS011;11523;50.390;8.072;2023-08-30T04:25:43;7.43;;;3.35;;
22711;SDS011;11523;50.390;8.072;2023-08-30T04:28:09;6.45;;;3.85;;
22711;SDS011;11523;50.390;8.072;2023-08-30T04:30:36;4.80;;;3.22;;
22711;SDS011;11523;50.390;8.072;2023-08-30T04:33:03;3.25;;;2.97;;
22711;SDS011;11523;50.390;8.072;2023-08-30T04:35:30;5.43;;;2.92;;
22711;SDS011;11523;50.390;8.072;2023-08-30T04:37:57;9.23;;;3.10;;
22711;SDS011;11523;50.390;8.072;2023-08-30T04:40:23;6.68;;;3.47;;
22711;SDS011;11523;50.390;8.072;2023-08-30T04:42:49;6.53;;;3.60;;
22711;SDS011;11523;50.390;8.072;2023-08-30T04:45:15;4.97;;;3.65;;
22711;SDS011;11523;50.390;8.072;2023-08-30T04:47:40;6.75;;;3.72;;
22711;SDS011;11523;50.390;8.072;2023-08-30T04:50:08;5.05;;;3.78;;
22711;SDS011;11523;50.390;8.072;2023-08-30T04:52:34;5.72;;;3.70;;
22711;SDS011;11523;50.390;8.072;2023-08-30T04:55:03;5.72;;;3.60;;
22711;SDS011;11523;50.390;8.072;2023-08-30T04:57:29;9.73;;;3.78;;
22711;SDS011;11523;50.390;8.072;2023-08-30T04:59:55;6.95;;;3.47;;
22711;SDS011;11523;50.390;8.072;2023-08-30T05:02:21;5.18;;;3.60;;
22711;SDS011;11523;50.390;8.072;2023-08-30T05:04:47;9.63;;;3.65;;
22711;SDS011;11523;50.390;8.072;2023-08-30T05:07:13;5.20;;;4.05;;
22711;SDS011;11523;50.390;8.072;2023-08-30T05:09:39;7.25;;;3.63;;
22711;SDS011;11523;50.390;8.072;2023-08-30T05:12:05;3.85;;;3.28;;
22711;SDS011;11523;50.390;8.072;2023-08-30T05:14:31;5.15;;;3.45;;
22711;SDS011;11523;50.390;8.072;2023-08-30T05:16:57;5.32;;;3.97;;
22711;SDS011;11523;50.390;8.072;2023-08-30T05:19:23;5.22;;;3.25;;
22711;SDS011;11523;50.390;8.072;2023-08-30T05:21:49;6.68;;;4.07;;
22711;SDS011;11523;50.390;8.072;2023-08-30T05:24:20;6.53;;;4.07;;
22711;SDS011;11523;50.390;8.072;2023-08-30T05:26:46;11.50;;;4.53;;
22711;SDS011;11523;50.390;8.072;2023-08-30T05:29:12;6.43;;;4.47;;
22711;SDS011;11523;50.390;8.072;2023-08-30T05:31:38;5.35;;;4.57;;
22711;SDS011;11523;50.390;8.072;2023-08-30T05:34:05;8.35;;;4.57;;
22711;SDS011;11523;50.390;8.072;2023-08-30T05:36:31;8.73;;;4.65;;
22711;SDS011;11523;50.390;8.072;2023-08-30T05:38:57;6.88;;;4.70;;
22711;SDS011;11523;50.390;8.072;2023-08-30T05:41:22;11.05;;;4.90;;
22711;SDS011;11523;50.390;8.072;2023-08-30T05:43:48;6.65;;;4.82;;
22711;SDS011;11523;50.390;8.072;2023-08-30T05:46:14;6.82;;;4.95;;
22711;SDS011;11523;50.390;8.072;2023-08-30T05:48:40;7.38;;;5.13;;
22711;SDS011;11523;50.390;8.072;2023-08-30T05:51:07;8.60;;;5.50;;
22711;SDS011;11523;50.390;8.072;2023-08-30T05:53:32;7.97;;;4.88;;
22711;SDS011;11523;50.390;8.072;2023-08-30T05:55:58;7.55;;;5.70;;
22711;SDS011;11523;50.390;8.072;2023-08-30T05:58:24;12.38;;;7.32;;
22711;SDS011;11523;50.390;8.072;2023-08-30T06:00:50;9.90;;;8.18;;
22711;SDS011;11523;50.390;8.072;2023-08-30T06:03:16;8.52;;;7.57;;
22711;SDS011;11523;50.390;8.072;2023-08-30T06:05:42;10.45;;;8.13;;
22711;SDS011;11523;50.390;8.072;2023-08-30T06:08:08;8.85;;;7.00;;
22711;SDS011;11523;50.390;8.072;2023-08-30T06:10:35;12.20;;;6.80;;
22711;SDS011;11523;50.390;8.072;2023-08-30T06:13:01;8.45;;;5.88;;
22711;SDS011;11523;50.390;8.072;2023-08-30T06:15:30;8.20;;;6.03;;
22711;SDS011;11523;50.390;8.072;2023-08-30T06:17:56;7.97;;;4.97;;
22711;SDS011;11523;50.390;8.072;2023-08-30T06:20:23;6.28;;;5.55;;
22711;SDS011;11523;50.390;8.072;2023-08-30T06:22:49;8.15;;;5.15;;
22711;SDS011;11523;50.390;8.072;2023-08-30T06:25:15;8.52;;;5.75;;
22711;SDS011;11523;50.390;8.072;2023-08-30T06:27:42;8.30;;;6.13;;
22711;SDS011;11523;50.390;8.072;2023-08-30T06:30:09;10.50;;;6.97;;
22711;SDS011;11523;50.390;8.072;2023-08-30T06:32:35;11.57;;;8.20;;
22711;SDS011;11523;50.390;8.072;2023-08-30T06:35:01;9.07;;;7.28;;
22711;SDS011;11523;50.390;8.072;2023-08-30T06:37:28;8.95;;;7.72;;
22711;SDS011;11523;50.390;8.072;2023-08-30T06:39:54;8.65;;;6.47;;
22711;SDS011;11523;50.390;8.072;2023-08-30T06:42:20;7.55;;;6.82;;
22711;SDS011;11523;50.390;8.072;2023-08-30T06:44:46;8.93;;;6.95;;
22711;SDS011;11523;50.390;8.072;2023-08-30T06:47:12;9.93;;;7.32;;
22711;SDS011;11523;50.390;8.072;2023-08-30T06:49:38;8.65;;;6.85;;
22711;SDS011;11523;50.390;8.072;2023-08-30T06:52:04;10.38;;;6.97;;
22711;SDS011;11523;50.390;8.072;2023-08-30T06:54:32;11.70;;;7.57;;
22711;SDS011;11523;50.390;8.072;2023-08-30T06:57:01;11.25;;;7.50;;
22711;SDS011;11523;50.390;8.072;2023-08-30T06:59:27;13.77;;;8.20;;
22711;SDS011;11523;50.390;8.072;2023-08-30T07:01:54;10.85;;;8.23;;
22711;SDS011;11523;50.390;8.072;2023-08-30T07:04:20;14.20;;;8.63;;
22711;SDS011;11523;50.390;8.072;2023-08-30T07:06:46;9.07;;;8.15;;
22711;SDS011;11523;50.390;8.072;2023-08-30T07:09:12;12.82;;;8.18;;
22711;SDS011;11523;50.390;8.072;2023-08-30T07:11:38;14.27;;;7.80;;
22711;SDS011;11523;50.390;8.072;2023-08-30T07:14:04;8.95;;;7.75;;
22711;SDS011;11523;50.390;8.072;2023-08-30T07:16:30;9.98;;;8.65;;
22711;SDS011;11523;50.390;8.072;2023-08-30T07:18:57;11.48;;;8.10;;
22711;SDS011;11523;50.390;8.072;2023-08-30T07:21:23;11.50;;;8.35;;
22711;SDS011;11523;50.390;8.072;2023-08-30T07:23:49;12.15;;;8.60;;
22711;SDS011;11523;50.390;8.072;2023-08-30T07:26:15;13.90;;;8.75;;
22711;SDS011;11523;50.390;8.072;2023-08-30T07:28:41;9.68;;;7.85;;
22711;SDS011;11523;50.390;8.072;2023-08-30T07:31:07;11.80;;;8.05;;
22711;SDS011;11523;50.390;8.072;2023-08-30T07:33:33;8.98;;;7.65;;
22711;SDS011;11523;50.390;8.072;2023-08-30T07:35:59;8.57;;;7.35;;
22711;SDS011;11523;50.390;8.072;2023-08-30T07:38:25;12.52;;;7.65;;
22711;SDS011;11523;50.390;8.072;2023-08-30T07:40:57;10.88;;;7.10;;
22711;SDS011;11523;50.390;8.072;2023-08-30T07:43:23;8.50;;;7.38;;
22711;SDS011;11523;50.390;8.072;2023-08-30T07:45:49;9.13;;;8.05;;
22711;SDS011;11523;50.390;8.072;2023-08-30T07:48:15;9.32;;;7.85;;
22711;SDS011;11523;50.390;8.072;2023-08-30T07:50:41;13.00;;;7.22;;
22711;SDS011;11523;50.390;8.072;2023-08-30T07:53:07;9.73;;;8.00;;
22711;SDS011;11523;50.390;8.072;2023-08-30T07:55:34;9.73;;;7.90;;
22711;SDS011;11523;50.390;8.072;2023-08-30T07:58:00;7.93;;;7.13;;
22711;SDS011;11523;50.390;8.072;2023-08-30T08:00:28;9.23;;;7.47;;
22711;SDS011;11523;50.390;8.072;2023-08-30T08:02:53;9.52;;;7.93;;
22711;SDS011;11523;50.390;8.072;2023-08-30T08:05:19;8.85;;;7.45;;
22711;SDS011;11523;50.390;8.072;2023-08-30T08:07:45;9.98;;;7.53;;
22711;SDS011;11523;50.390;8.072;2023-08-30T08:10:11;12.35;;;7.78;;
22711;SDS011;11523;50.390;8.072;2023-08-30T08:12:37;9.85;;;8.30;;
22711;SDS011;11523;50.390;8.072;2023-08-30T08:15:03;8.95;;;7.93;;
22711;SDS011;11523;50.390;8.072;2023-08-30T08:17:29;8.80;;;8.00;;
22711;SDS011;11523;50.390;8.072;2023-08-30T08:19:55;10.52;;;8.13;;
22711;SDS011;11523;50.390;8.072;2023-08-30T08:22:21;12.70;;;7.63;;
22711;SDS011;11523;50.390;8.072;2023-08-30T08:24:48;8.35;;;7.55;;
22711;SDS011;11523;50.390;8.072;2023-08-30T08:27:16;9.52;;;8.07;;
22711;SDS011;11523;50.390;8.072;2023-08-30T08:29:42;8.82;;;7.93;;
22711;SDS011;11523;50.390;8.072;2023-08-30T08:32:08;9.15;;;7.60;;
22711;SDS011;11523;50.390;8.072;2023-08-30T08:34:34;9.77;;;7.35;;
22711;SDS011;11523;50.390;8.072;2023-08-30T08:37:00;8.90;;;7.68;;
22711;SDS011;11523;50.390;8.072;2023-08-30T08:39:26;10.40;;;7.97;;
22711;SDS011;11523;50.390;8.072;2023-08-30T08:41:52;10.30;;;8.13;;
22711;SDS011;11523;50.390;8.072;2023-08-30T08:44:19;8.65;;;7.75;;
22711;SDS011;11523;50.390;8.072;2023-08-30T08:46:45;17.20;;;8.27;;
22711;SDS011;11523;50.390;8.072;2023-08-30T08:49:12;9.85;;;7.28;;
22711;SDS011;11523;50.390;8.072;2023-08-30T08:51:39;9.27;;;7.68;;
22711;SDS011;11523;50.390;8.072;2023-08-30T08:54:06;10.93;;;7.82;;
22711;SDS011;11523;50.390;8.072;2023-08-30T08:56:34;10.45;;;7.35;;
22711;SDS011;11523;50.390;8.072;2023-08-30T08:59:00;8.95;;;7.85;;
22711;SDS011;11523;50.390;8.072;2023-08-30T09:01:26;10.50;;;7.60;;
22711;SDS011;11523;50.390;8.072;2023-08-30T09:03:52;8.35;;;7.38;;
22711;SDS011;11523;50.390;8.072;2023-08-30T09:06:18;11.93;;;7.38;;
22711;SDS011;11523;50.390;8.072;2023-08-30T09:08:44;13.40;;;6.70;;
22711;SDS011;11523;50.390;8.072;2023-08-30T09:11:10;9.70;;;7.15;;
22711;SDS011;11523;50.390;8.072;2023-08-30T09:13:36;9.32;;;7.28;;
22711;SDS011;11523;50.390;8.072;2023-08-30T09:16:02;8.25;;;7.03;;
22711;SDS011;11523;50.390;8.072;2023-08-30T09:18:28;8.05;;;7.35;;
22711;SDS011;11523;50.390;8.072;2023-08-30T09:21:07;10.52;;;7.57;;
22711;SDS011;11523;50.390;8.072;2023-08-30T09:23:33;9.20;;;7.28;;
22711;SDS011;11523;50.390;8.072;2023-08-30T09:25:59;9.55;;;6.85;;
22711;SDS011;11523;50.390;8.072;2023-08-30T09:28:25;8.13;;;7.32;;
22711;SDS011;11523;50.390;8.072;2023-08-30T09:30:52;7.65;;;6.95;;
22711;SDS011;11523;50.390;8.072;2023-08-30T09:33:21;7.90;;;7.10;;
22711;SDS011;11523;50.390;8.072;2023-08-30T09:35:48;10.88;;;7.07;;
22711;SDS011;11523;50.390;8.072;2023-08-30T09:38:17;7.60;;;6.75;;
22711;SDS011;11523;50.390;8.072;2023-08-30T09:40:43;7.57;;;6.88;;
22711;SDS011;11523;50.390;8.072;2023-08-30T09:43:10;7.63;;;6.93;;
22711;SDS011;11523;50.390;8.072;2023-08-30T09:45:36;6.88;;;5.75;;
22711;SDS011;11523;50.390;8.072;2023-08-30T09:48:03;9.77;;;6.20;;
22711;SDS011;11523;50.390;8.072;2023-08-30T09:50:29;5.75;;;5.10;;
22711;SDS011;11523;50.390;8.072;2023-08-30T09:52:59;7.60;;;5.88;;
22711;SDS011;11523;50.390;8.072;2023-08-30T09:55:26;6.50;;;5.78;;
22711;SDS011;11523;50.390;8.072;2023-08-30T09:57:52;5.40;;;4.40;;
22711;SDS011;11523;50.390;8.072;2023-08-30T10:00:19;4.60;;;4.20;;
22711;SDS011;11523;50.390;8.072;2023-08-30T10:02:45;6.93;;;4.70;;
22711;SDS011;11523;50.390;8.072;2023-08-30T10:05:11;4.82;;;4.40;;
22711;SDS011;11523;50.390;8.072;2023-08-30T10:07:38;4.30;;;3.90;;
22711;SDS011;11523;50.390;8.072;2023-08-30T10:10:10;4.80;;;4.30;;
22711;SDS011;11523;50.390;8.072;2023-08-30T10:12:36;4.13;;;3.65;;
22711;SDS011;11523;50.390;8.072;2023-08-30T10:15:03;4.20;;;3.80;;
22711;SDS011;11523;50.390;8.072;2023-08-30T10:17:33;3.38;;;3.08;;
22711;SDS011;11523;50.390;8.072;2023-08-30T10:19:59;3.53;;;2.75;;
22711;SDS011;11523;50.390;8.072;2023-08-30T10:22:27;6.38;;;2.97;;
22711;SDS011;11523;50.390;8.072;2023-08-30T10:24:57;3.22;;;2.92;;
22711;SDS011;11523;50.390;8.072;2023-08-30T10:27:25;5.05;;;3.20;;
22711;SDS011;11523;50.390;8.072;2023-08-30T10:29:52;5.72;;;2.97;;
22711;SDS011;11523;50.390;8.072;2023-08-30T10:32:21;3.85;;;2.95;;
22711;SDS011;11523;50.390;8.072;2023-08-30T10:34:48;3.45;;;2.88;;
22711;SDS011;11523;50.390;8.072;2023-08-30T10:37:14;3.03;;;2.75;;
22711;SDS011;11523;50.390;8.072;2023-08-30T10:39:41;3.30;;;3.00;;
22711;SDS011;11523;50.390;8.072;2023-08-30T10:42:12;5.28;;;3.15;;
22711;SDS011;11523;50.390;8.072;2023-08-30T10:44:51;3.60;;;2.72;;
22711;SDS011;11523;50.390;8.072;2023-08-30T10:47:22;5.72;;;3.00;;
22711;SDS011;11523;50.390;8.072;2023-08-30T10:49:48;3.33;;;2.70;;
22711;SDS011;11523;50.390;8.072;2023-08-30T10:52:14;3.10;;;2.80;;
22711;SDS011;11523;50.390;8.072;2023-08-30T10:54:40;5.22;;;2.75;;
22711;SDS011;11523;50.390;8.072;2023-08-30T10:57:14;5.57;;;3.15;;
22711;SDS011;11523;50.390;8.072;2023-08-30T11:00:03;3.93;;;2.93;;
22711;SDS011;11523;50.390;8.072;2023-08-30T11:02:28;5.10;;;3.22;;
22711;SDS011;11523;50.390;8.072;2023-08-30T11:04:54;3.55;;;2.97;;
22711;SDS011;11523;50.390;8.072;2023-08-30T11:07:21;4.53;;;3.20;;
22711;SDS011;11523;50.390;8.072;2023-08-30T11:09:47;3.92;;;3.10;;
22711;SDS011;11523;50.390;8.072;2023-08-30T11:12:13;4.70;;;3.13;;
22711;SDS011;11523;50.390;8.072;2023-08-30T11:14:40;3.53;;;3.20;;
22711;SDS011;11523;50.390;8.072;2023-08-30T11:17:09;4.55;;;2.85;;
22711;SDS011;11523;50.390;8.072;2023-08-30T11:19:35;4.35;;;2.70;;
22711;SDS011;11523;50.390;8.072;2023-08-30T11:22:01;4.13;;;3.28;;
22711;SDS011;11523;50.390;8.072;2023-08-30T11:24:27;3.83;;;2.70;;
22711;SDS011;11523;50.390;8.072;2023-08-30T11:26:54;3.45;;;2.80;;
22711;SDS011;11523;50.390;8.072;2023-08-30T11:29:20;5.63;;;2.92;;
22711;SDS011;11523;50.390;8.072;2023-08-30T11:31:46;5.60;;;3.30;;
22711;SDS011;11523;50.390;8.072;2023-08-30T11:34:12;6.63;;;2.80;;
22711;SDS011;11523;50.390;8.072;2023-08-30T11:36:38;4.88;;;3.08;;
22711;SDS011;11523;50.390;8.072;2023-08-30T11:39:04;3.10;;;2.80;;
22711;SDS011;11523;50.390;8.072;2023-08-30T11:41:30;5.47;;;2.90;;
22711;SDS011;11523;50.390;8.072;2023-08-30T11:43:56;4.50;;;2.80;;
22711;SDS011;11523;50.390;8.072;2023-08-30T11:46:24;6.18;;;3.00;;
22711;SDS011;11523;50.390;8.072;2023-08-30T11:48:50;5.35;;;2.83;;
22711;SDS011;11523;50.390;8.072;2023-08-30T11:51:16;4.00;;;3.17;;
22711;SDS011;11523;50.390;8.072;2023-08-30T11:53:43;4.82;;;2.60;;
22711;SDS011;11523;50.390;8.072;2023-08-30T11:56:09;3.13;;;2.50;;
22711;SDS011;11523;50.390;8.072;2023-08-30T11:58:36;3.70;;;2.72;;
22711;SDS011;11523;50.390;8.072;2023-08-30T12:01:06;3.85;;;2.67;;
22711;SDS011;11523;50.390;8.072;2023-08-30T12:03:33;4.38;;;2.83;;
22711;SDS011;11523;50.390;8.072;2023-08-30T12:05:59;3.05;;;2.80;;
22711;SDS011;11523;50.390;8.072;2023-08-30T12:08:25;3.88;;;2.88;;
22711;SDS011;11523;50.390;8.072;2023-08-30T12:10:52;4.68;;;2.90;;
22711;SDS011;11523;50.390;8.072;2023-08-30T12:13:25;4.43;;;3.10;;
22711;SDS011;11523;50.390;8.072;2023-08-30T12:15:55;5.15;;;3.15;;
22711;SDS011;11523;50.390;8.072;2023-08-30T12:18:21;6.10;;;3.20;;
22711;SDS011;11523;50.390;8.072;2023-08-30T12:20:55;4.18;;;3.28;;
22711;SDS011;11523;50.390;8.072;2023-08-30T12:23:25;6.47;;;3.25;;
22711;SDS011;11523;50.390;8.072;2023-08-30T12:26:01;3.92;;;3.00;;
22711;SDS011;11523;50.390;8.072;2023-08-30T12:28:29;8.02;;;3.33;;
22711;SDS011;11523;50.390;8.072;2023-08-30T12:30:55;5.32;;;3.10;;
22711;SDS011;11523;50.390;8.072;2023-08-30T12:33:21;4.43;;;3.05;;
22711;SDS011;11523;50.390;8.072;2023-08-30T12:35:47;6.18;;;3.28;;
22711;SDS011;11523;50.390;8.072;2023-08-30T12:38:14;5.80;;;3.22;;
22711;SDS011;11523;50.390;8.072;2023-08-30T12:40:45;4.53;;;3.22;;
22711;SDS011;11523;50.390;8.072;2023-08-30T12:43:12;7.07;;;3.10;;
22711;SDS011;11523;50.390;8.072;2023-08-30T12:45:41;6.60;;;3.20;;
22711;SDS011;11523;50.390;8.072;2023-08-30T12:48:08;4.57;;;3.20;;
22711;SDS011;11523;50.390;8.072;2023-08-30T12:50:35;5.72;;;3.38;;
22711;SDS011;11523;50.390;8.072;2023-08-30T12:53:02;5.43;;;3.28;;
22711;SDS011;11523;50.390;8.072;2023-08-30T12:55:28;4.30;;;3.67;;
22711;SDS011;11523;50.390;8.072;2023-08-30T12:57:54;3.60;;;3.30;;
22711;SDS011;11523;50.390;8.072;2023-08-30T13:00:20;4.10;;;3.20;;
22711;SDS011;11523;50.390;8.072;2023-08-30T13:02:46;5.63;;;3.60;;
22711;SDS011;11523;50.390;8.072;2023-08-30T13:05:12;3.67;;;3.28;;
22711;SDS011;11523;50.390;8.072;2023-08-30T13:07:38;5.93;;;3.40;;
22711;SDS011;11523;50.390;8.072;2023-08-30T13:10:05;4.90;;;3.55;;
22711;SDS011;11523;50.390;8.072;2023-08-30T13:12:31;5.40;;;3.47;;
22711;SDS011;11523;50.390;8.072;2023-08-30T13:14:57;5.28;;;3.40;;
22711;SDS011;11523;50.390;8.072;2023-08-30T13:17:23;4.43;;;3.28;;
22711;SDS011;11523;50.390;8.072;2023-08-30T13:19:49;4.90;;;3.30;;
22711;SDS011;11523;50.390;8.072;2023-08-30T13:22:16;5.55;;;3.47;;
22711;SDS011;11523;50.390;8.072;2023-08-30T13:24:42;5.40;;;3.90;;
22711;SDS011;11523;50.390;8.072;2023-08-30T13:27:08;4.97;;;3.40;;
22711;SDS011;11523;50.390;8.072;2023-08-30T13:29:35;5.13;;;3.42;;
22711;SDS011;11523;50.390;8.072;2023-08-30T13:32:01;4.38;;;3.47;;
22711;SDS011;11523;50.390;8.072;2023-08-30T13:34:27;4.05;;;3.25;;
22711;SDS011;11523;50.390;8.072;2023-08-30T13:36:59;3.55;;;3.20;;
22711;SDS011;11523;50.390;8.072;2023-08-30T13:39:25;5.15;;;3.45;;
22711;SDS011;11523;50.390;8.072;2023-08-30T13:41:51;5.63;;;2.95;;
22711;SDS011;11523;50.390;8.072;2023-08-30T13:44:17;5.00;;;3.50;;
22711;SDS011;11523;50.390;8.072;2023-08-30T13:46:43;5.05;;;3.50;;
22711;SDS011;11523;50.390;8.072;2023-08-30T13:49:12;5.07;;;3.55;;
22711;SDS011;11523;50.390;8.072;2023-08-30T13:51:38;6.50;;;3.42;;
22711;SDS011;11523;50.390;8.072;2023-08-30T13:54:04;4.63;;;3.35;;
22711;SDS011;11523;50.390;8.072;2023-08-30T13:56:30;3.75;;;3.00;;
22711;SDS011;11523;50.390;8.072;2023-08-30T13:58:57;4.50;;;3.15;;
22711;SDS011;11523;50.390;8.072;2023-08-30T14:01:23;8.07;;;3.42;;
22711;SDS011;11523;50.390;8.072;2023-08-30T14:03:49;4.90;;;3.20;;
22711;SDS011;11523;50.390;8.072;2023-08-30T14:06:15;3.97;;;3.00;;
22711;SDS011;11523;50.390;8.072;2023-08-30T14:08:41;4.43;;;3.22;;
22711;SDS011;11523;50.390;8.072;2023-08-30T14:11:07;4.85;;;3.00;;
22711;SDS011;11523;50.390;8.072;2023-08-30T14:13:33;4.60;;;2.95;;
22711;SDS011;11523;50.390;8.072;2023-08-30T14:15:59;4.65;;;3.05;;
22711;SDS011;11523;50.390;8.072;2023-08-30T14:18:25;3.10;;;2.80;;
22711;SDS011;11523;50.390;8.072;2023-08-30T14:20:54;5.30;;;2.80;;
22711;SDS011;11523;50.390;8.072;2023-08-30T14:23:20;5.88;;;3.13;;
22711;SDS011;11523;50.390;8.072;2023-08-30T14:25:54;5.65;;;2.90;;
22711;SDS011;11523;50.390;8.072;2023-08-30T14:28:20;4.20;;;2.67;;
22711;SDS011;11523;50.390;8.072;2023-08-30T14:30:46;3.92;;;3.20;;
22711;SDS011;11523;50.390;8.072;2023-08-30T14:33:12;3.20;;;2.53;;
22711;SDS011;11523;50.390;8.072;2023-08-30T14:35:41;3.15;;;2.85;;
22711;SDS011;11523;50.390;8.072;2023-08-30T14:38:07;3.65;;;3.00;;
22711;SDS011;11523;50.390;8.072;2023-08-30T14:40:33;3.70;;;2.88;;
22711;SDS011;11523;50.390;8.072;2023-08-30T14:42:59;3.97;;;2.80;;
22711;SDS011;11523;50.390;8.072;2023-08-30T14:45:25;3.35;;;2.80;;
22711;SDS011;11523;50.390;8.072;2023-08-30T14:47:51;4.60;;;2.70;;
22711;SDS011;11523;50.390;8.072;2023-08-30T14:50:17;3.95;;;2.80;;